Oriental Freesia — ZGCD7 — position and weather

sailwx.info

Track history (hours):
 
Tides and Currents Weather Stations Pressure Air Temp Water Temp Dewpoint Dewpoint Depression Visibility Wind Speed Wind Dir Waves Ship Positions

Oriental Freesia

Last reported at 2017-Dec-16 18:49 UTC. Time now 2017-Dec-17 02:39 UTC.
Position N 35°49' E 014°47'.

Length 134 m; draft 4.6 m.

Type: Ship (hazmat cat A). MMSI: 319349000.

Date/timePositionNaut miles runAvg speedWind from/ knotsBaromVisibWave heightAir tempDewpointWater temp
2017-Dec-16 18:49N 35°49' E 014°47'11 0.3
2017-Dec-15 06:45N 35°49' E 014°33'1 3.8
2017-Dec-15 06:30N 35°49' E 014°34'5 9.8
2017-Dec-15 05:59N 35°47' E 014°40'47811.5
2017-Dec-13 12:22N 35°59' E 024°30'411.3
2017-Dec-13 12:00N 36°00' E 024°35'3 5.7
2017-Dec-13 11:28N 36°01' E 024°38'1 2.1
2017-Dec-13 10:58N 36°02' E 024°37'1 2.1
2017-Dec-13 10:28N 36°02' E 024°36'1 2.1
2017-Dec-13 09:58N 36°03' E 024°34'1 2.0
2017-Dec-13 09:28N 36°03' E 024°33'1 1.9
2017-Dec-13 09:00N 36°04' E 024°32'1 1.9
2017-Dec-13 08:30N 36°04' E 024°31'1 1.9
2017-Dec-13 08:00N 36°05' E 024°30'1 1.7
2017-Dec-13 07:30N 36°05' E 024°29'1 1.7
2017-Dec-13 06:57N 36°05' E 024°28'1 1.5
2017-Dec-13 06:30N 36°06' E 024°28'1 1.5
2017-Dec-13 06:00N 36°06' E 024°27'1 1.5
2017-Dec-13 05:30N 36°06' E 024°26'1 1.6
2017-Dec-13 05:00N 36°07' E 024°25'1 1.6
2017-Dec-13 04:30N 36°07' E 024°24'1 1.6
2017-Dec-13 04:00N 36°08' E 024°24'1 1.7
2017-Dec-13 03:30N 36°08' E 024°23'1 1.7
2017-Dec-13 02:57N 36°09' E 024°22'1 1.6
2017-Dec-13 02:30N 36°09' E 024°21'1 1.6
2017-Dec-13 02:00N 36°10' E 024°20'1 1.7
2017-Dec-13 01:30N 36°11' E 024°20'1 1.6
2017-Dec-13 01:00N 36°11' E 024°19'1 1.6
2017-Dec-13 00:27N 36°12' E 024°18'1 1.6
2017-Dec-13 00:00N 36°12' E 024°17'1 1.4
2017-Dec-12 23:30N 36°12' E 024°16'1 1.2
2017-Dec-12 23:00N 36°12' E 024°16'1 1.1
2017-Dec-12 22:30N 36°13' E 024°15'1 1.1
2017-Dec-12 22:00N 36°13' E 024°14'1 1.0
2017-Dec-12 21:30N 36°13' E 024°14'0 0.9
2017-Dec-12 21:00N 36°13' E 024°13'0 0.8
2017-Dec-12 20:27N 36°13' E 024°13'0 0.8
2017-Dec-12 20:00N 36°13' E 024°12'0 0.7
2017-Dec-12 19:30N 36°13' E 024°12'0 0.6
2017-Dec-12 19:00N 36°13' E 024°11'0 0.5
2017-Dec-12 18:30N 36°13' E 024°11'0 0.5
2017-Dec-12 18:00N 36°13' E 024°11'0 0.4
2017-Dec-12 17:30N 36°13' E 024°11'0 0.2
2017-Dec-12 17:00N 36°13' E 024°11'0 0.2
2017-Dec-12 16:30N 36°13' E 024°11'0 0.1
2017-Dec-12 16:00N 36°13' E 024°11'0 0.2
2017-Dec-12 15:27N 36°13' E 024°11'0 0.2
2017-Dec-12 15:00N 36°13' E 024°11'0 0.2
2017-Dec-12 14:30N 36°13' E 024°11'0 0.4
2017-Dec-12 14:00N 36°14' E 024°11'1 1.1
2017-Dec-12 13:30N 36°14' E 024°10'1 1.2
2017-Dec-12 13:00N 36°15' E 024°10'0 0.2
2017-Dec-12 12:30N 36°15' E 024°10'0 0.2
2017-Dec-12 12:00N 36°14' E 024°10'0 0.3
2017-Dec-12 11:27N 36°14' E 024°10'0 0.3
2017-Dec-12 11:00N 36°14' E 024°10'0 0.2
2017-Dec-12 10:30N 36°14' E 024°10'0 0.1
2017-Dec-12 10:00N 36°14' E 024°10'0 0.2
2017-Dec-12 09:27N 36°14' E 024°10'0 0.1
2017-Dec-12 08:57N 36°14' E 024°10'0 0.2
2017-Dec-12 08:30N 36°14' E 024°10'0 0.2
2017-Dec-12 08:00N 36°14' E 024°11'0 0.2
2017-Dec-12 07:30N 36°14' E 024°11'0 0.2
2017-Dec-12 06:57N 36°15' E 024°11'0 0.3
2017-Dec-12 06:30N 36°15' E 024°11'0 0.3
2017-Dec-12 06:00N 36°15' E 024°11'0 0.3
2017-Dec-12 05:30N 36°15' E 024°10'0 0.3
2017-Dec-12 05:00N 36°15' E 024°10'0 0.3
2017-Dec-12 04:30N 36°15' E 024°10'0 0.3
2017-Dec-12 04:00N 36°15' E 024°10'0 0.3
2017-Dec-12 03:30N 36°15' E 024°10'0 0.2
2017-Dec-12 03:00N 36°15' E 024°10'0 0.2
2017-Dec-12 02:30N 36°15' E 024°10'0 0.2
2017-Dec-12 02:00N 36°15' E 024°09'0 0.3
2017-Dec-12 01:30N 36°15' E 024°09'0 0.3
2017-Dec-12 01:00N 36°15' E 024°09'0 0.3
2017-Dec-12 00:30N 36°15' E 024°09'0 0.3
2017-Dec-12 00:00N 36°15' E 024°09'0 0.4
2017-Dec-11 23:30N 36°15' E 024°08'0 0.4
2017-Dec-11 23:00N 36°15' E 024°08'0 0.4
2017-Dec-11 22:30N 36°15' E 024°08'0 0.5
2017-Dec-11 22:00N 36°15' E 024°08'0 0.5
2017-Dec-11 21:30N 36°15' E 024°07'0 0.6
2017-Dec-11 21:00N 36°15' E 024°07'0 0.6
2017-Dec-11 20:30N 36°14' E 024°07'0 0.6
2017-Dec-11 20:00N 36°14' E 024°07'0 0.8
2017-Dec-11 19:30N 36°14' E 024°07'0 0.9
2017-Dec-11 19:00N 36°13' E 024°07'2 2.5
2017-Dec-11 18:21N 36°13' E 024°09'812.6
2017-Dec-11 17:43N 36°12' E 024°18'313.0
2017-Dec-11 17:30N 36°11' E 024°22'713.2
2017-Dec-11 17:00N 36°10' E 024°30'612.9
2017-Dec-11 16:30N 36°08' E 024°37'4 7.8
2017-Dec-11 16:00N 36°06' E 024°42'0 0.3
2017-Dec-11 15:30N 36°06' E 024°42'0 0.4
2017-Dec-11 15:00N 36°06' E 024°41'0 0.5
2017-Dec-11 14:30N 36°06' E 024°41'0 0.6
2017-Dec-11 14:00N 36°06' E 024°41'0 0.6
2017-Dec-11 13:30N 36°06' E 024°40'0 0.8
2017-Dec-11 13:00N 36°06' E 024°40'0 0.9
2017-Dec-11 12:30N 36°06' E 024°39'0 0.8
2017-Dec-11 11:57N 36°06' E 024°39'0 0.8
2017-Dec-11 11:27N 36°06' E 024°38'0 0.8
2017-Dec-11 11:00N 36°06' E 024°38'0 0.8
2017-Dec-11 10:30N 36°06' E 024°37'1 1.0
2017-Dec-11 09:57N 36°06' E 024°37'1 1.3
2017-Dec-11 09:30N 36°06' E 024°36'1 1.2
2017-Dec-11 09:00N 36°06' E 024°35'1 1.2
2017-Dec-11 08:30N 36°05' E 024°35'1 1.1
2017-Dec-11 08:00N 36°05' E 024°34'1 1.1
2017-Dec-11 07:30N 36°05' E 024°33'1 1.1
2017-Dec-11 07:00N 36°05' E 024°33'1 1.1
2017-Dec-11 06:30N 36°05' E 024°32'1 1.3
2017-Dec-11 06:00N 36°05' E 024°31'1 1.4
2017-Dec-11 05:27N 36°06' E 024°30'1 1.5
2017-Dec-11 05:00N 36°06' E 024°29'1 1.5
2017-Dec-11 04:30N 36°06' E 024°29'1 1.5
2017-Dec-11 04:00N 36°06' E 024°28'1 1.5
2017-Dec-11 03:30N 36°07' E 024°27'1 1.6
2017-Dec-11 03:00N 36°07' E 024°26'1 1.7
2017-Dec-11 02:30N 36°07' E 024°25'1 1.7
2017-Dec-11 02:00N 36°08' E 024°24'1 1.7
2017-Dec-11 01:30N 36°08' E 024°23'1 1.7
2017-Dec-11 01:00N 36°09' E 024°22'1 1.6
2017-Dec-11 00:30N 36°09' E 024°22'1 1.5
2017-Dec-11 00:00N 36°10' E 024°21'1 1.5
2017-Dec-10 23:30N 36°10' E 024°20'1 1.5
2017-Dec-10 23:00N 36°10' E 024°19'1 1.5
2017-Dec-10 22:30N 36°11' E 024°18'1 1.5
2017-Dec-10 21:51N 36°11' E 024°17'0 1.4
2017-Dec-10 21:30N 36°11' E 024°17'1 1.5
2017-Dec-10 21:00N 36°12' E 024°16'1 1.5
2017-Dec-10 20:30N 36°12' E 024°15'1 1.5
2017-Dec-10 20:00N 36°13' E 024°14'1 1.7
2017-Dec-10 19:30N 36°13' E 024°14'1 1.6
2017-Dec-10 19:00N 36°13' E 024°13'1 1.7
2017-Dec-10 18:30N 36°14' E 024°12'1 1.6
2017-Dec-10 18:00N 36°14' E 024°11'1 1.5
2017-Dec-10 17:30N 36°15' E 024°10'1 1.5
2017-Dec-10 16:57N 36°15' E 024°09'1 2.3
2017-Dec-10 16:30N 36°16' E 024°08'611.2
2017-Dec-10 16:00N 36°20' E 024°04'4 7.8
2017-Dec-10 15:29N 36°23' E 024°08'510.6
2017-Dec-10 15:00N 36°23' E 024°14'510.4
2017-Dec-10 14:30N 36°22' E 024°21'510.1
2017-Dec-10 14:00N 36°22' E 024°27'1 1.6
2017-Dec-10 13:30N 36°22' E 024°28'612.7
2017-Dec-10 13:00N 36°22' E 024°20'612.9
2017-Dec-10 12:30N 36°22' E 024°12'612.8
2017-Dec-10 12:00N 36°22' E 024°04'612.5
2017-Dec-10 11:30N 36°22' E 023°56'2 1.0
2017-Dec-10 09:34N 36°20' E 023°56'210.4
2017-Dec-10 09:24N 36°20' E 023°58'4 9.9
2017-Dec-10 09:00N 36°18' E 024°02'5 9.9
2017-Dec-10 08:30N 36°16' E 024°08'5 9.8
2017-Dec-10 08:00N 36°15' E 024°14'5 9.6
2017-Dec-10 07:30N 36°13' E 024°19'5 9.8
2017-Dec-10 07:00N 36°11' E 024°25'5 9.9
2017-Dec-10 06:30N 36°08' E 024°30'510.6
2017-Dec-10 06:00N 36°05' E 024°36'5 9.4
2017-Dec-10 05:30N 36°10' E 024°34'510.6
2017-Dec-10 05:00N 36°15' E 024°31'510.5
2017-Dec-10 04:30N 36°19' E 024°27'3 5.8
2017-Dec-10 03:58N 36°20' E 024°24'1 1.9
2017-Dec-10 03:28N 36°20' E 024°23'1 1.9
2017-Dec-10 03:00N 36°19' E 024°22'1 1.9
2017-Dec-10 02:30N 36°18' E 024°21'1 1.7
2017-Dec-10 02:00N 36°18' E 024°20'1 1.9
2017-Dec-10 01:30N 36°17' E 024°19'1 1.9
2017-Dec-10 01:00N 36°16' E 024°19'1 1.7
2017-Dec-10 00:29N 36°16' E 024°18'1 1.8
2017-Dec-09 23:59N 36°15' E 024°17'1 1.8
2017-Dec-09 23:29N 36°14' E 024°17'1 1.5
2017-Dec-09 22:59N 36°14' E 024°16'1 1.4
2017-Dec-09 22:29N 36°13' E 024°16'1 1.7
2017-Dec-09 22:00N 36°12' E 024°15'1 1.4
2017-Dec-09 21:30N 36°12' E 024°14'1 1.6
2017-Dec-09 21:00N 36°11' E 024°14'1 1.9
2017-Dec-09 20:30N 36°11' E 024°13'3 5.0
2017-Dec-09 19:55N 36°10' E 024°16'511.3
2017-Dec-09 19:30N 36°09' E 024°22'611.5
2017-Dec-09 19:00N 36°07' E 024°29'611.5
2017-Dec-09 18:30N 36°05' E 024°35'611.5
2017-Dec-09 18:00N 36°04' E 024°42'611.4
2017-Dec-09 17:30N 36°02' E 024°49'3 6.4
2017-Dec-09 16:58N 36°02' E 024°53'1 2.0
2017-Dec-09 16:28N 36°02' E 024°52'1 2.1
2017-Dec-09 15:55N 36°02' E 024°51'1 2.2
2017-Dec-09 15:28N 36°02' E 024°49'1 2.1
2017-Dec-09 14:58N 36°02' E 024°48'1 2.0
2017-Dec-09 14:25N 36°02' E 024°47'1 2.0
2017-Dec-09 13:58N 36°02' E 024°46'1 1.9
2017-Dec-09 13:28N 36°02' E 024°44'1 1.7
2017-Dec-09 12:58N 36°02' E 024°43'1 1.7
2017-Dec-09 12:28N 36°02' E 024°42'1 1.7
2017-Dec-09 11:58N 36°02' E 024°41'1 1.8
2017-Dec-09 11:28N 36°02' E 024°40'1 1.8
2017-Dec-09 10:58N 36°02' E 024°39'1 1.8
2017-Dec-09 10:28N 36°02' E 024°38'1 1.6
2017-Dec-09 09:55N 36°02' E 024°37'1 1.7
2017-Dec-09 09:28N 36°02' E 024°36'1 1.5
2017-Dec-09 08:52N 36°02' E 024°35'1 1.5
2017-Dec-09 08:28N 36°02' E 024°34'1 1.5
2017-Dec-09 07:58N 36°02' E 024°33'1 1.4
2017-Dec-09 07:28N 36°03' E 024°32'1 1.4
2017-Dec-09 06:58N 36°03' E 024°31'1 1.3
2017-Dec-09 06:28N 36°03' E 024°31'1 1.4
2017-Dec-09 05:58N 36°03' E 024°30'1 1.4
2017-Dec-09 05:28N 36°04' E 024°29'1 1.4
2017-Dec-09 04:58N 36°04' E 024°28'1 1.5
2017-Dec-09 04:28N 36°05' E 024°28'1 1.6
2017-Dec-09 03:58N 36°05' E 024°27'1 1.7
2017-Dec-09 03:28N 36°05' E 024°26'1 1.8
2017-Dec-09 02:58N 36°06' E 024°25'1 1.8
2017-Dec-09 02:28N 36°07' E 024°24'1 1.9
2017-Dec-09 01:58N 36°07' E 024°23'1 2.0
2017-Dec-09 01:28N 36°08' E 024°22'1 2.0
2017-Dec-09 00:58N 36°08' E 024°21'1 1.9
2017-Dec-09 00:28N 36°09' E 024°20'1 1.9
2017-Dec-08 23:58N 36°10' E 024°19'1 1.9
2017-Dec-08 23:22N 36°10' E 024°18'1 2.1
2017-Dec-08 22:58N 36°11' E 024°17'1 2.2
2017-Dec-08 22:29N 36°11' E 024°16'1 2.3
2017-Dec-08 22:00N 36°11' E 024°15'1 2.8
2017-Dec-08 21:31N 36°12' E 024°13'611.9
2017-Dec-08 21:01N 36°16' E 024°08'612.4
2017-Dec-08 20:30N 36°21' E 024°03'612.3
2017-Dec-08 20:00N 36°25' E 023°58'1 1.7
2017-Dec-08 19:29N 36°26' E 023°57'2 1.7
2017-Dec-08 18:35N 36°25' E 023°56'1 1.7
2017-Dec-08 18:05N 36°24' E 023°56'1 1.7
2017-Dec-08 17:38N 36°23' E 023°56'0 1.7
2017-Dec-08 17:29N 36°23' E 023°55'2 1.8
2017-Dec-08 16:32N 36°21' E 023°55'0 1.7
2017-Dec-08 16:23N 36°21' E 023°54'1 1.7
2017-Dec-08 15:59N 36°21' E 023°54'1 1.6
2017-Dec-08 15:23N 36°20' E 023°54'19 8.3
2017-Dec-08 13:08N 36°17' E 024°17'0 2.7
2017-Dec-08 12:59N 36°18' E 024°17'1 1.4
2017-Dec-08 12:29N 36°18' E 024°16'1 1.5
2017-Dec-08 11:59N 36°18' E 024°15'1 1.5
2017-Dec-08 11:29N 36°18' E 024°14'1 1.4
2017-Dec-08 10:59N 36°19' E 024°14'1 1.3
2017-Dec-08 10:29N 36°19' E 024°13'1 1.3
2017-Dec-08 09:59N 36°19' E 024°12'1 1.3
2017-Dec-08 09:29N 36°19' E 024°11'1 1.3
2017-Dec-08 08:59N 36°19' E 024°10'1 1.2
2017-Dec-08 08:29N 36°19' E 024°10'1 1.2
2017-Dec-08 07:56N 36°19' E 024°09'1 1.1
2017-Dec-08 07:26N 36°19' E 024°08'1 1.1
2017-Dec-08 06:56N 36°19' E 024°07'0 1.0
2017-Dec-08 06:29N 36°19' E 024°07'1 1.0
2017-Dec-08 05:56N 36°19' E 024°06'0 0.9
2017-Dec-08 05:29N 36°19' E 024°06'0 0.9
2017-Dec-08 04:56N 36°19' E 024°05'0 0.8
2017-Dec-08 04:26N 36°19' E 024°05'0 0.8
2017-Dec-08 03:59N 36°18' E 024°04'0 0.9
2017-Dec-08 03:29N 36°18' E 024°04'0 0.9
2017-Dec-08 02:59N 36°18' E 024°03'0 0.8
2017-Dec-08 02:29N 36°19' E 024°03'0 0.7
2017-Dec-08 01:59N 36°19' E 024°02'0 0.7
2017-Dec-08 01:29N 36°19' E 024°02'0 0.7
2017-Dec-08 00:59N 36°19' E 024°01'0 0.6
2017-Dec-08 00:26N 36°19' E 024°01'0 0.6
2017-Dec-07 23:59N 36°19' E 024°00'0 0.6
2017-Dec-07 23:26N 36°19' E 024°00'0 0.6
2017-Dec-07 22:59N 36°19' E 023°60'0 0.6
2017-Dec-07 22:29N 36°18' E 023°59'0 0.6
2017-Dec-07 21:59N 36°18' E 023°59'0 0.5
2017-Dec-07 21:29N 36°18' E 023°59'0 0.5
2017-Dec-07 20:59N 36°18' E 023°59'0 0.5
2017-Dec-07 20:29N 36°18' E 023°59'0 0.4
2017-Dec-07 19:59N 36°17' E 023°59'0 0.4
2017-Dec-07 19:26N 36°17' E 023°59'0 0.3
2017-Dec-07 18:56N 36°17' E 023°59'0 0.3
2017-Dec-07 18:20N 36°17' E 023°59'0 0.3
2017-Dec-07 17:59N 36°17' E 023°59'0 0.3
2017-Dec-07 17:29N 36°17' E 023°59'0 0.3
2017-Dec-07 16:59N 36°17' E 023°59'0 0.3
2017-Dec-07 16:29N 36°16' E 023°59'0 0.2
2017-Dec-07 15:41N 36°16' E 023°59'0 0.2
2017-Dec-07 15:26N 36°16' E 023°59'0 0.2
2017-Dec-07 14:53N 36°16' E 023°59'0 0.2
2017-Dec-07 14:26N 36°16' E 023°60'0 0.2
2017-Dec-07 13:56N 36°16' E 023°60'0 0.3
2017-Dec-07 13:29N 36°16' E 023°60'0 0.3
2017-Dec-07 12:59N 36°16' E 023°60'0 0.3
2017-Dec-07 12:29N 36°16' E 024°00'0 0.2
2017-Dec-07 11:59N 36°17' E 024°00'0 0.2
2017-Dec-07 11:26N 36°17' E 024°00'0 0.3
2017-Dec-07 10:53N 36°17' E 024°00'0 0.4
2017-Dec-07 10:29N 36°17' E 023°60'0 0.5
2017-Dec-07 09:41N 36°17' E 023°60'0 0.5
2017-Dec-07 09:20N 36°17' E 023°60'0 0.5
2017-Dec-07 08:53N 36°18' E 023°59'0 0.6
2017-Dec-07 08:20N 36°18' E 023°59'0 0.6
2017-Dec-07 07:59N 36°18' E 023°59'1 0.7
2017-Dec-07 07:08N 36°18' E 023°58'0 0.7
2017-Dec-07 06:59N 36°18' E 023°58'0 0.7
2017-Dec-07 06:23N 36°19' E 023°58'1 2.0
2017-Dec-07 06:00N 36°19' E 023°57'611.7
2017-Dec-07 05:30N 36°17' E 023°50'22 6.8
2017-Dec-07 02:14N 36°38' E 023°43'1 0.9
2017-Dec-07 00:48N 36°40' E 023°43'  
Track history (hours):
 
Tides and Currents Weather Stations Pressure Air Temp Water Temp Dewpoint Dewpoint Depression Visibility Wind Speed Wind Dir Waves Ship Positions

Oriental Freesia

Last reported at 2017-Dec-16 18:49 UTC. Time now 2017-Dec-17 02:39 UTC.
Position N 35°49' E 014°47'.

Length 134 m; draft 4.6 m.

Type: Ship (hazmat cat A). MMSI: 319349000.

Date/timePositionNaut miles runAvg speedWind from/ knotsBaromVisibWave heightAir tempDewpointWater temp
2017-Dec-16 18:49N 35°49' E 014°47'11 0.3
2017-Dec-15 06:45N 35°49' E 014°33'1 3.8
2017-Dec-15 06:30N 35°49' E 014°34'5 9.8
2017-Dec-15 05:59N 35°47' E 014°40'47811.5
2017-Dec-13 12:22N 35°59' E 024°30'411.3
2017-Dec-13 12:00N 36°00' E 024°35'3 5.7
2017-Dec-13 11:28N 36°01' E 024°38'1 2.1
2017-Dec-13 10:58N 36°02' E 024°37'1 2.1
2017-Dec-13 10:28N 36°02' E 024°36'1 2.1
2017-Dec-13 09:58N 36°03' E 024°34'1 2.0
2017-Dec-13 09:28N 36°03' E 024°33'1 1.9
2017-Dec-13 09:00N 36°04' E 024°32'1 1.9
2017-Dec-13 08:30N 36°04' E 024°31'1 1.9
2017-Dec-13 08:00N 36°05' E 024°30'1 1.7
2017-Dec-13 07:30N 36°05' E 024°29'1 1.7
2017-Dec-13 06:57N 36°05' E 024°28'1 1.5
2017-Dec-13 06:30N 36°06' E 024°28'1 1.5
2017-Dec-13 06:00N 36°06' E 024°27'1 1.5
2017-Dec-13 05:30N 36°06' E 024°26'1 1.6
2017-Dec-13 05:00N 36°07' E 024°25'1 1.6
2017-Dec-13 04:30N 36°07' E 024°24'1 1.6
2017-Dec-13 04:00N 36°08' E 024°24'1 1.7
2017-Dec-13 03:30N 36°08' E 024°23'1 1.7
2017-Dec-13 02:57N 36°09' E 024°22'1 1.6
2017-Dec-13 02:30N 36°09' E 024°21'1 1.6
2017-Dec-13 02:00N 36°10' E 024°20'1 1.7
2017-Dec-13 01:30N 36°11' E 024°20'1 1.6
2017-Dec-13 01:00N 36°11' E 024°19'1 1.6
2017-Dec-13 00:27N 36°12' E 024°18'1 1.6
2017-Dec-13 00:00N 36°12' E 024°17'1 1.4
2017-Dec-12 23:30N 36°12' E 024°16'1 1.2
2017-Dec-12 23:00N 36°12' E 024°16'1 1.1
2017-Dec-12 22:30N 36°13' E 024°15'1 1.1
2017-Dec-12 22:00N 36°13' E 024°14'1 1.0
2017-Dec-12 21:30N 36°13' E 024°14'0 0.9
2017-Dec-12 21:00N 36°13' E 024°13'0 0.8
2017-Dec-12 20:27N 36°13' E 024°13'0 0.8
2017-Dec-12 20:00N 36°13' E 024°12'0 0.7
2017-Dec-12 19:30N 36°13' E 024°12'0 0.6
2017-Dec-12 19:00N 36°13' E 024°11'0 0.5
2017-Dec-12 18:30N 36°13' E 024°11'0 0.5
2017-Dec-12 18:00N 36°13' E 024°11'0 0.4
2017-Dec-12 17:30N 36°13' E 024°11'0 0.2
2017-Dec-12 17:00N 36°13' E 024°11'0 0.2
2017-Dec-12 16:30N 36°13' E 024°11'0 0.1
2017-Dec-12 16:00N 36°13' E 024°11'0 0.2
2017-Dec-12 15:27N 36°13' E 024°11'0 0.2
2017-Dec-12 15:00N 36°13' E 024°11'0 0.2
2017-Dec-12 14:30N 36°13' E 024°11'0 0.4
2017-Dec-12 14:00N 36°14' E 024°11'1 1.1
2017-Dec-12 13:30N 36°14' E 024°10'1 1.2
2017-Dec-12 13:00N 36°15' E 024°10'0 0.2
2017-Dec-12 12:30N 36°15' E 024°10'0 0.2
2017-Dec-12 12:00N 36°14' E 024°10'0 0.3
2017-Dec-12 11:27N 36°14' E 024°10'0 0.3
2017-Dec-12 11:00N 36°14' E 024°10'0 0.2
2017-Dec-12 10:30N 36°14' E 024°10'0 0.1
2017-Dec-12 10:00N 36°14' E 024°10'0 0.2
2017-Dec-12 09:27N 36°14' E 024°10'0 0.1
2017-Dec-12 08:57N 36°14' E 024°10'0 0.2
2017-Dec-12 08:30N 36°14' E 024°10'0 0.2
2017-Dec-12 08:00N 36°14' E 024°11'0 0.2
2017-Dec-12 07:30N 36°14' E 024°11'0 0.2
2017-Dec-12 06:57N 36°15' E 024°11'0 0.3
2017-Dec-12 06:30N 36°15' E 024°11'0 0.3
2017-Dec-12 06:00N 36°15' E 024°11'0 0.3
2017-Dec-12 05:30N 36°15' E 024°10'0 0.3
2017-Dec-12 05:00N 36°15' E 024°10'0 0.3
2017-Dec-12 04:30N 36°15' E 024°10'0 0.3
2017-Dec-12 04:00N 36°15' E 024°10'0 0.3
2017-Dec-12 03:30N 36°15' E 024°10'0 0.2
2017-Dec-12 03:00N 36°15' E 024°10'0 0.2
2017-Dec-12 02:30N 36°15' E 024°10'0 0.2
2017-Dec-12 02:00N 36°15' E 024°09'0 0.3
2017-Dec-12 01:30N 36°15' E 024°09'0 0.3
2017-Dec-12 01:00N 36°15' E 024°09'0 0.3
2017-Dec-12 00:30N 36°15' E 024°09'0 0.3
2017-Dec-12 00:00N 36°15' E 024°09'0 0.4
2017-Dec-11 23:30N 36°15' E 024°08'0 0.4
2017-Dec-11 23:00N 36°15' E 024°08'0 0.4
2017-Dec-11 22:30N 36°15' E 024°08'0 0.5
2017-Dec-11 22:00N 36°15' E 024°08'0 0.5
2017-Dec-11 21:30N 36°15' E 024°07'0 0.6
2017-Dec-11 21:00N 36°15' E 024°07'0 0.6
2017-Dec-11 20:30N 36°14' E 024°07'0 0.6
2017-Dec-11 20:00N 36°14' E 024°07'0 0.8
2017-Dec-11 19:30N 36°14' E 024°07'0 0.9
2017-Dec-11 19:00N 36°13' E 024°07'2 2.5
2017-Dec-11 18:21N 36°13' E 024°09'812.6
2017-Dec-11 17:43N 36°12' E 024°18'313.0
2017-Dec-11 17:30N 36°11' E 024°22'713.2
2017-Dec-11 17:00N 36°10' E 024°30'612.9
2017-Dec-11 16:30N 36°08' E 024°37'4 7.8
2017-Dec-11 16:00N 36°06' E 024°42'0 0.3
2017-Dec-11 15:30N 36°06' E 024°42'0 0.4
2017-Dec-11 15:00N 36°06' E 024°41'0 0.5
2017-Dec-11 14:30N 36°06' E 024°41'0 0.6
2017-Dec-11 14:00N 36°06' E 024°41'0 0.6
2017-Dec-11 13:30N 36°06' E 024°40'0 0.8
2017-Dec-11 13:00N 36°06' E 024°40'0 0.9
2017-Dec-11 12:30N 36°06' E 024°39'0 0.8
2017-Dec-11 11:57N 36°06' E 024°39'0 0.8
2017-Dec-11 11:27N 36°06' E 024°38'0 0.8
2017-Dec-11 11:00N 36°06' E 024°38'0 0.8
2017-Dec-11 10:30N 36°06' E 024°37'1 1.0
2017-Dec-11 09:57N 36°06' E 024°37'1 1.3
2017-Dec-11 09:30N 36°06' E 024°36'1 1.2
2017-Dec-11 09:00N 36°06' E 024°35'1 1.2
2017-Dec-11 08:30N 36°05' E 024°35'1 1.1
2017-Dec-11 08:00N 36°05' E 024°34'1 1.1
2017-Dec-11 07:30N 36°05' E 024°33'1 1.1
2017-Dec-11 07:00N 36°05' E 024°33'1 1.1
2017-Dec-11 06:30N 36°05' E 024°32'1 1.3
2017-Dec-11 06:00N 36°05' E 024°31'1 1.4
2017-Dec-11 05:27N 36°06' E 024°30'1 1.5
2017-Dec-11 05:00N 36°06' E 024°29'1 1.5
2017-Dec-11 04:30N 36°06' E 024°29'1 1.5
2017-Dec-11 04:00N 36°06' E 024°28'1 1.5
2017-Dec-11 03:30N 36°07' E 024°27'1 1.6
2017-Dec-11 03:00N 36°07' E 024°26'1 1.7
2017-Dec-11 02:30N 36°07' E 024°25'1 1.7
2017-Dec-11 02:00N 36°08' E 024°24'1 1.7
2017-Dec-11 01:30N 36°08' E 024°23'1 1.7
2017-Dec-11 01:00N 36°09' E 024°22'1 1.6
2017-Dec-11 00:30N 36°09' E 024°22'1 1.5
2017-Dec-11 00:00N 36°10' E 024°21'1 1.5
2017-Dec-10 23:30N 36°10' E 024°20'1 1.5
2017-Dec-10 23:00N 36°10' E 024°19'1 1.5
2017-Dec-10 22:30N 36°11' E 024°18'1 1.5
2017-Dec-10 21:51N 36°11' E 024°17'0 1.4
2017-Dec-10 21:30N 36°11' E 024°17'1 1.5
2017-Dec-10 21:00N 36°12' E 024°16'1 1.5
2017-Dec-10 20:30N 36°12' E 024°15'1 1.5
2017-Dec-10 20:00N 36°13' E 024°14'1 1.7
2017-Dec-10 19:30N 36°13' E 024°14'1 1.6
2017-Dec-10 19:00N 36°13' E 024°13'1 1.7
2017-Dec-10 18:30N 36°14' E 024°12'1 1.6
2017-Dec-10 18:00N 36°14' E 024°11'1 1.5
2017-Dec-10 17:30N 36°15' E 024°10'1 1.5
2017-Dec-10 16:57N 36°15' E 024°09'1 2.3
2017-Dec-10 16:30N 36°16' E 024°08'611.2
2017-Dec-10 16:00N 36°20' E 024°04'4 7.8
2017-Dec-10 15:29N 36°23' E 024°08'510.6
2017-Dec-10 15:00N 36°23' E 024°14'510.4
2017-Dec-10 14:30N 36°22' E 024°21'510.1
2017-Dec-10 14:00N 36°22' E 024°27'1 1.6
2017-Dec-10 13:30N 36°22' E 024°28'612.7
2017-Dec-10 13:00N 36°22' E 024°20'612.9
2017-Dec-10 12:30N 36°22' E 024°12'612.8
2017-Dec-10 12:00N 36°22' E 024°04'612.5
2017-Dec-10 11:30N 36°22' E 023°56'2 1.0
2017-Dec-10 09:34N 36°20' E 023°56'210.4
2017-Dec-10 09:24N 36°20' E 023°58'4 9.9
2017-Dec-10 09:00N 36°18' E 024°02'5 9.9
2017-Dec-10 08:30N 36°16' E 024°08'5 9.8
2017-Dec-10 08:00N 36°15' E 024°14'5 9.6
2017-Dec-10 07:30N 36°13' E 024°19'5 9.8
2017-Dec-10 07:00N 36°11' E 024°25'5 9.9
2017-Dec-10 06:30N 36°08' E 024°30'510.6
2017-Dec-10 06:00N 36°05' E 024°36'5 9.4
2017-Dec-10 05:30N 36°10' E 024°34'510.6
2017-Dec-10 05:00N 36°15' E 024°31'510.5
2017-Dec-10 04:30N 36°19' E 024°27'3 5.8
2017-Dec-10 03:58N 36°20' E 024°24'1 1.9
2017-Dec-10 03:28N 36°20' E 024°23'1 1.9
2017-Dec-10 03:00N 36°19' E 024°22'1 1.9
2017-Dec-10 02:30N 36°18' E 024°21'1 1.7
2017-Dec-10 02:00N 36°18' E 024°20'1 1.9
2017-Dec-10 01:30N 36°17' E 024°19'1 1.9
2017-Dec-10 01:00N 36°16' E 024°19'1 1.7
2017-Dec-10 00:29N 36°16' E 024°18'1 1.8
2017-Dec-09 23:59N 36°15' E 024°17'1 1.8
2017-Dec-09 23:29N 36°14' E 024°17'1 1.5
2017-Dec-09 22:59N 36°14' E 024°16'1 1.4
2017-Dec-09 22:29N 36°13' E 024°16'1 1.7
2017-Dec-09 22:00N 36°12' E 024°15'1 1.4
2017-Dec-09 21:30N 36°12' E 024°14'1 1.6
2017-Dec-09 21:00N 36°11' E 024°14'1 1.9
2017-Dec-09 20:30N 36°11' E 024°13'3 5.0
2017-Dec-09 19:55N 36°10' E 024°16'511.3
2017-Dec-09 19:30N 36°09' E 024°22'611.5
2017-Dec-09 19:00N 36°07' E 024°29'611.5
2017-Dec-09 18:30N 36°05' E 024°35'611.5
2017-Dec-09 18:00N 36°04' E 024°42'611.4
2017-Dec-09 17:30N 36°02' E 024°49'3 6.4
2017-Dec-09 16:58N 36°02' E 024°53'1 2.0
2017-Dec-09 16:28N 36°02' E 024°52'1 2.1
2017-Dec-09 15:55N 36°02' E 024°51'1 2.2
2017-Dec-09 15:28N 36°02' E 024°49'1 2.1
2017-Dec-09 14:58N 36°02' E 024°48'1 2.0
2017-Dec-09 14:25N 36°02' E 024°47'1 2.0
2017-Dec-09 13:58N 36°02' E 024°46'1 1.9
2017-Dec-09 13:28N 36°02' E 024°44'1 1.7
2017-Dec-09 12:58N 36°02' E 024°43'1 1.7
2017-Dec-09 12:28N 36°02' E 024°42'1 1.7
2017-Dec-09 11:58N 36°02' E 024°41'1 1.8
2017-Dec-09 11:28N 36°02' E 024°40'1 1.8
2017-Dec-09 10:58N 36°02' E 024°39'1 1.8
2017-Dec-09 10:28N 36°02' E 024°38'1 1.6
2017-Dec-09 09:55N 36°02' E 024°37'1 1.7
2017-Dec-09 09:28N 36°02' E 024°36'1 1.5
2017-Dec-09 08:52N 36°02' E 024°35'1 1.5
2017-Dec-09 08:28N 36°02' E 024°34'1 1.5
2017-Dec-09 07:58N 36°02' E 024°33'1 1.4
2017-Dec-09 07:28N 36°03' E 024°32'1 1.4
2017-Dec-09 06:58N 36°03' E 024°31'1 1.3
2017-Dec-09 06:28N 36°03' E 024°31'1 1.4
2017-Dec-09 05:58N 36°03' E 024°30'1 1.4
2017-Dec-09 05:28N 36°04' E 024°29'1 1.4
2017-Dec-09 04:58N 36°04' E 024°28'1 1.5
2017-Dec-09 04:28N 36°05' E 024°28'1 1.6
2017-Dec-09 03:58N 36°05' E 024°27'1 1.7
2017-Dec-09 03:28N 36°05' E 024°26'1 1.8
2017-Dec-09 02:58N 36°06' E 024°25'1 1.8
2017-Dec-09 02:28N 36°07' E 024°24'1 1.9
2017-Dec-09 01:58N 36°07' E 024°23'1 2.0
2017-Dec-09 01:28N 36°08' E 024°22'1 2.0
2017-Dec-09 00:58N 36°08' E 024°21'1 1.9
2017-Dec-09 00:28N 36°09' E 024°20'1 1.9
2017-Dec-08 23:58N 36°10' E 024°19'1 1.9
2017-Dec-08 23:22N 36°10' E 024°18'1 2.1
2017-Dec-08 22:58N 36°11' E 024°17'1 2.2
2017-Dec-08 22:29N 36°11' E 024°16'1 2.3
2017-Dec-08 22:00N 36°11' E 024°15'1 2.8
2017-Dec-08 21:31N 36°12' E 024°13'611.9
2017-Dec-08 21:01N 36°16' E 024°08'612.4
2017-Dec-08 20:30N 36°21' E 024°03'612.3
2017-Dec-08 20:00N 36°25' E 023°58'1 1.7
2017-Dec-08 19:29N 36°26' E 023°57'2 1.7
2017-Dec-08 18:35N 36°25' E 023°56'1 1.7
2017-Dec-08 18:05N 36°24' E 023°56'1 1.7
2017-Dec-08 17:38N 36°23' E 023°56'0 1.7
2017-Dec-08 17:29N 36°23' E 023°55'2 1.8
2017-Dec-08 16:32N 36°21' E 023°55'0 1.7
2017-Dec-08 16:23N 36°21' E 023°54'1 1.7
2017-Dec-08 15:59N 36°21' E 023°54'1 1.6
2017-Dec-08 15:23N 36°20' E 023°54'19 8.3
2017-Dec-08 13:08N 36°17' E 024°17'0 2.7
2017-Dec-08 12:59N 36°18' E 024°17'1 1.4
2017-Dec-08 12:29N 36°18' E 024°16'1 1.5
2017-Dec-08 11:59N 36°18' E 024°15'1 1.5
2017-Dec-08 11:29N 36°18' E 024°14'1 1.4
2017-Dec-08 10:59N 36°19' E 024°14'1 1.3
2017-Dec-08 10:29N 36°19' E 024°13'1 1.3
2017-Dec-08 09:59N 36°19' E 024°12'1 1.3
2017-Dec-08 09:29N 36°19' E 024°11'1 1.3
2017-Dec-08 08:59N 36°19' E 024°10'1 1.2
2017-Dec-08 08:29N 36°19' E 024°10'1 1.2
2017-Dec-08 07:56N 36°19' E 024°09'1 1.1
2017-Dec-08 07:26N 36°19' E 024°08'1 1.1
2017-Dec-08 06:56N 36°19' E 024°07'0 1.0
2017-Dec-08 06:29N 36°19' E 024°07'1 1.0
2017-Dec-08 05:56N 36°19' E 024°06'0 0.9
2017-Dec-08 05:29N 36°19' E 024°06'0 0.9
2017-Dec-08 04:56N 36°19' E 024°05'0 0.8
2017-Dec-08 04:26N 36°19' E 024°05'0 0.8
2017-Dec-08 03:59N 36°18' E 024°04'0 0.9
2017-Dec-08 03:29N 36°18' E 024°04'0 0.9
2017-Dec-08 02:59N 36°18' E 024°03'0 0.8
2017-Dec-08 02:29N 36°19' E 024°03'0 0.7
2017-Dec-08 01:59N 36°19' E 024°02'0 0.7
2017-Dec-08 01:29N 36°19' E 024°02'0 0.7
2017-Dec-08 00:59N 36°19' E 024°01'0 0.6
2017-Dec-08 00:26N 36°19' E 024°01'0 0.6
2017-Dec-07 23:59N 36°19' E 024°00'0 0.6
2017-Dec-07 23:26N 36°19' E 024°00'0 0.6
2017-Dec-07 22:59N 36°19' E 023°60'0 0.6
2017-Dec-07 22:29N 36°18' E 023°59'0 0.6
2017-Dec-07 21:59N 36°18' E 023°59'0 0.5
2017-Dec-07 21:29N 36°18' E 023°59'0 0.5
2017-Dec-07 20:59N 36°18' E 023°59'0 0.5
2017-Dec-07 20:29N 36°18' E 023°59'0 0.4
2017-Dec-07 19:59N 36°17' E 023°59'0 0.4
2017-Dec-07 19:26N 36°17' E 023°59'0 0.3
2017-Dec-07 18:56N 36°17' E 023°59'0 0.3
2017-Dec-07 18:20N 36°17' E 023°59'0 0.3
2017-Dec-07 17:59N 36°17' E 023°59'0 0.3
2017-Dec-07 17:29N 36°17' E 023°59'0 0.3
2017-Dec-07 16:59N 36°17' E 023°59'0 0.3
2017-Dec-07 16:29N 36°16' E 023°59'0 0.2
2017-Dec-07 15:41N 36°16' E 023°59'0 0.2
2017-Dec-07 15:26N 36°16' E 023°59'0 0.2
2017-Dec-07 14:53N 36°16' E 023°59'0 0.2
2017-Dec-07 14:26N 36°16' E 023°60'0 0.2
2017-Dec-07 13:56N 36°16' E 023°60'0 0.3
2017-Dec-07 13:29N 36°16' E 023°60'0 0.3
2017-Dec-07 12:59N 36°16' E 023°60'0 0.3
2017-Dec-07 12:29N 36°16' E 024°00'0 0.2
2017-Dec-07 11:59N 36°17' E 024°00'0 0.2
2017-Dec-07 11:26N 36°17' E 024°00'0 0.3
2017-Dec-07 10:53N 36°17' E 024°00'0 0.4
2017-Dec-07 10:29N 36°17' E 023°60'0 0.5
2017-Dec-07 09:41N 36°17' E 023°60'0 0.5
2017-Dec-07 09:20N 36°17' E 023°60'0 0.5
2017-Dec-07 08:53N 36°18' E 023°59'0 0.6
2017-Dec-07 08:20N 36°18' E 023°59'0 0.6
2017-Dec-07 07:59N 36°18' E 023°59'1 0.7
2017-Dec-07 07:08N 36°18' E 023°58'0 0.7
2017-Dec-07 06:59N 36°18' E 023°58'0 0.7
2017-Dec-07 06:23N 36°19' E 023°58'1 2.0
2017-Dec-07 06:00N 36°19' E 023°57'611.7
2017-Dec-07 05:30N 36°17' E 023°50'22 6.8
2017-Dec-07 02:14N 36°38' E 023°43'1 0.9
2017-Dec-07 00:48N 36°40' E 023°43'  

Dump ship's entire track history